Delano, TN

4:13 AM EST on November 26, 2014 (GMT -0500)
Diamond Head Estates | Change Station
CLOSE
Current Station
Personal Weather Station
Location: Calhoun, TN
Elevation: 820 ft
Nearby Weather Stations

Elev 820 ft 35.30 °N, 84.69 °W | Updated 11 seconds ago

Overcast
Overcast
42.1 °F
Feels Like 42 °F
N
0.0
Wind Variable Wind from North
Gusts 0.0 mph

Today
High -- | Low -- °F
--% Chance of Precip.
Yesterday
High -- | Low -- °F
Precip. -- in
7:24 AM 5:27 PM
Waxing Crescent, 18% visible
Pressure 30.00 in
Visibility 10.0 miles
Clouds Scattered Clouds 11000 ft
Windchill 42 °F
Dew Point 33 °F
Humidity 69%
Rainfall 0.00 in
Snow Depth Not available.
UV 0 out of 12
Pollen .50 out of 12
Air Quality Not available.
Flu Activity Not available.
METAR KRZR 260855Z AUTO 05004KT 10SM SCT110 06/M01 A3000 RMK

More Conditions Fewer Conditions

Pressure 30.00 in
Visibility 10.0 miles
Clouds Scattered Clouds 11000 ft
Windchill 42 °F
Dew Point 33 °F
Humidity 69%
Rainfall 0.00 in
Snow Depth Not available.
UV 0 out of 12
Pollen .50 out of 12
Air Quality Not available.
Flu Activity Not available.
METAR KRZR 260855Z AUTO 05004KT 10SM SCT110 06/M01 A3000 RMK

More Conditions Fewer Conditions

10-Day Weather Forecast

Almanac

Astronomy

Nov. 26, 2014 Rise Set
Actual Time
Civil Twilight
Nautical Twilight
Astronomical Twilight
Moon
Length of Visible Light
Length of Day
Tomorrow will be .
, % of the Moon is Illuminated

Today's Extremes

State Highs State Lows

Community

WunderPhotos

Upload Photos

1,773,701 photos uploaded!

WunderBlogs® & News

Nearby

Air Quality

  Air Quality AQ Index Pollutant
Not available.

Snow Depth

Station Depth Elevation

Earthquake Activity

City Distance Mag. Time & Date
Minimum magnitude displayed is 2.5.

Coastal Water Temperatures

Place Temperature

Nearby Weather Stations